createdAt,value
2022-07-29T00:00:14.937Z,98268.38
2022-07-29T00:02:41.838Z,98271.91
2022-07-29T00:05:09.627Z,98266.63
2022-07-29T00:07:36.462Z,98255.47
2022-07-29T00:10:03.388Z,98269.00
2022-07-29T00:12:30.116Z,98277.41
2022-07-29T00:14:58.155Z,98267.38
2022-07-29T00:17:26.270Z,98268.94
2022-07-29T00:19:53.143Z,98267.03
2022-07-29T00:22:21.040Z,98267.94
2022-07-29T00:24:51.354Z,98270.03
2022-07-29T00:27:18.844Z,98269.28
2022-07-29T00:29:45.761Z,98274.78
2022-07-29T00:32:12.801Z,98267.75
2022-07-29T00:34:58.112Z,98261.75
2022-07-29T00:37:24.927Z,98266.50
2022-07-29T00:39:51.626Z,98267.59
2022-07-29T00:42:18.802Z,98271.13
2022-07-29T00:44:45.368Z,98277.00
2022-07-29T00:47:12.832Z,98268.25
2022-07-29T00:49:41.616Z,98276.81
2022-07-29T00:52:10.221Z,98272.88
2022-07-29T00:54:44.216Z,98281.50
2022-07-29T00:57:12.430Z,98278.78
2022-07-29T01:00:00.210Z,98273.59
2022-07-29T01:02:28.193Z,98276.41
2022-07-29T01:04:54.941Z,98276.41
2022-07-29T01:07:21.743Z,98278.78
2022-07-29T01:09:48.739Z,98272.47
2022-07-29T01:12:19.356Z,98281.88
2022-07-29T01:14:47.571Z,98269.91
2022-07-29T01:17:52.563Z,98274.97
2022-07-29T01:20:48.080Z,98278.06
2022-07-29T01:23:14.774Z,98272.53
2022-07-29T01:26:05.133Z,98276.81
2022-07-29T01:29:07.654Z,98269.88
2022-07-29T01:32:03.527Z,98260.84
2022-07-29T01:36:49.830Z,98257.56
2022-07-29T01:39:41.403Z,98255.81
2022-07-29T01:42:08.167Z,98254.97
2022-07-29T01:44:40.844Z,98252.84
2022-07-29T01:47:15.831Z,98248.59
2022-07-29T01:49:47.269Z,98237.06
2022-07-29T01:52:32.294Z,98245.41
2022-07-29T01:55:03.848Z,98240.41
2022-07-29T01:57:35.041Z,98249.00
2022-07-29T02:00:02.223Z,98246.19
2022-07-29T02:02:31.363Z,98245.47
2022-07-29T02:05:00.016Z,98239.97
2022-07-29T02:07:30.571Z,98246.91
2022-07-29T02:09:59.357Z,98246.66
2022-07-29T02:12:27.131Z,98245.25
2022-07-29T02:14:55.630Z,98255.25
2022-07-29T02:17:27.282Z,98243.16
2022-07-29T02:19:58.580Z,98252.66
2022-07-29T02:22:27.747Z,98246.91
2022-07-29T02:24:54.822Z,98250.09
2022-07-29T02:27:22.031Z,98251.13
2022-07-29T02:29:50.249Z,98248.22
2022-07-29T02:32:17.764Z,98251.72
2022-07-29T02:34:45.901Z,98243.59
2022-07-29T02:37:13.666Z,98249.94
2022-07-29T02:39:43.707Z,98246.50
2022-07-29T02:42:15.847Z,98241.94
2022-07-29T02:44:43.096Z,98233.44
2022-07-29T02:47:41.481Z,98239.16
2022-07-29T02:50:14.694Z,98242.03
2022-07-29T02:53:04.424Z,98242.22
2022-07-29T02:55:35.003Z,98235.03
2022-07-29T02:58:33.037Z,98243.47
2022-07-29T03:01:04.275Z,98245.22
2022-07-29T03:03:38.593Z,98238.34
2022-07-29T03:06:06.987Z,98236.88
2022-07-29T03:08:35.262Z,98242.00
2022-07-29T03:11:02.718Z,98242.94
2022-07-29T03:13:31.330Z,98236.56
2022-07-29T03:15:59.015Z,98238.84
2022-07-29T03:18:26.879Z,98225.66
2022-07-29T03:20:53.902Z,98231.16
2022-07-29T03:23:23.749Z,98234.44
2022-07-29T03:25:51.249Z,98233.38
2022-07-29T03:28:18.034Z,98232.78
2022-07-29T03:30:46.325Z,98236.81
2022-07-29T03:33:13.717Z,98234.28
2022-07-29T03:37:37.639Z,98239.19
2022-07-29T03:40:08.605Z,98233.19
2022-07-29T03:42:39.258Z,98240.34
2022-07-29T03:45:13.611Z,98236.25
2022-07-29T03:48:00.553Z,98236.75
2022-07-29T03:50:38.387Z,98242.88
2022-07-29T03:53:10.205Z,98239.13
2022-07-29T03:55:48.562Z,98246.41
2022-07-29T03:58:16.645Z,98253.56
2022-07-29T04:00:45.098Z,98242.31
2022-07-29T04:03:20.845Z,98242.97
2022-07-29T04:05:59.748Z,98248.72
2022-07-29T04:08:31.099Z,98240.91
2022-07-29T04:11:18.426Z,98247.59
2022-07-29T04:13:45.300Z,98247.09
2022-07-29T04:16:14.680Z,98253.66
2022-07-29T04:19:05.651Z,98253.47
2022-07-29T04:21:41.895Z,98245.66
2022-07-29T04:24:10.592Z,98249.03
2022-07-29T04:26:40.298Z,98241.53
2022-07-29T04:29:13.264Z,98243.88
2022-07-29T04:32:07.034Z,98239.09
2022-07-29T04:34:36.993Z,98241.66
2022-07-29T04:37:06.295Z,98246.38
2022-07-29T04:39:32.985Z,98250.44
2022-07-29T04:41:59.711Z,98247.66
2022-07-29T04:44:29.163Z,98242.66
2022-07-29T04:46:56.179Z,98244.72
2022-07-29T04:49:29.090Z,98239.16
2022-07-29T04:51:56.181Z,98244.31
2022-07-29T04:54:22.997Z,98235.56
2022-07-29T04:56:49.858Z,98231.53
2022-07-29T04:59:16.687Z,98237.97
2022-07-29T05:01:43.978Z,98238.84
2022-07-29T05:04:14.364Z,98233.19
2022-07-29T05:06:41.294Z,98228.53
2022-07-29T05:09:08.296Z,98245.09
2022-07-29T05:11:34.956Z,98249.22
2022-07-29T05:14:01.845Z,98240.78
2022-07-29T05:16:29.019Z,98246.44
2022-07-29T05:18:55.986Z,98235.91
2022-07-29T05:21:22.672Z,98256.28
2022-07-29T05:23:49.365Z,98246.25
2022-07-29T05:26:16.363Z,98252.31
2022-07-29T05:28:43.352Z,98244.06
2022-07-29T05:31:10.608Z,98245.59
2022-07-29T05:33:40.692Z,98249.50
2022-07-29T05:38:38.835Z,98232.06
2022-07-29T05:41:09.132Z,98242.59
2022-07-29T05:43:37.891Z,98243.88
2022-07-29T05:46:04.655Z,98248.00
2022-07-29T05:48:31.281Z,98238.75
2022-07-29T05:50:57.923Z,98243.94
2022-07-29T05:53:24.819Z,98247.72
2022-07-29T05:55:53.095Z,98265.19
2022-07-29T05:58:19.930Z,98252.38
2022-07-29T06:00:47.124Z,98249.78
2022-07-29T06:03:13.891Z,98246.56
2022-07-29T06:05:40.643Z,98242.66
2022-07-29T06:08:08.367Z,98246.91
2022-07-29T06:10:38.533Z,98244.63
2022-07-29T06:13:05.633Z,98250.88
2022-07-29T06:15:32.353Z,98233.53
2022-07-29T06:18:01.390Z,98240.22
2022-07-29T06:20:32.699Z,98248.06
2022-07-29T06:23:00.264Z,98245.75
2022-07-29T06:25:27.510Z,98246.22
2022-07-29T06:27:54.502Z,98246.00
2022-07-29T06:30:21.140Z,98240.31
2022-07-29T06:32:48.300Z,98251.88
2022-07-29T06:35:41.395Z,98243.25
2022-07-29T06:38:02.051Z,98248.41
2022-07-29T06:40:47.765Z,98251.13
2022-07-29T06:43:14.468Z,98242.88
2022-07-29T06:45:42.562Z,98250.59
2022-07-29T06:48:10.616Z,98261.47
2022-07-29T06:50:37.310Z,98258.66
2022-07-29T06:53:04.912Z,98249.03
2022-07-29T06:55:31.719Z,98252.63
2022-07-29T06:57:58.327Z,98266.06
2022-07-29T07:00:25.067Z,98263.00
2022-07-29T07:02:51.848Z,98265.75
2022-07-29T07:05:18.415Z,98266.56
2022-07-29T07:07:44.987Z,98262.34
2022-07-29T07:10:11.589Z,98270.13
2022-07-29T07:12:38.172Z,98258.31
2022-07-29T07:15:05.460Z,98265.09
2022-07-29T07:17:32.099Z,98255.69
2022-07-29T07:19:58.674Z,98262.69
2022-07-29T07:22:25.237Z,98255.53
2022-07-29T07:24:51.909Z,98262.94
2022-07-29T07:27:18.571Z,98281.91
2022-07-29T07:29:45.181Z,98258.22
2022-07-29T07:32:12.273Z,98259.72
2022-07-29T07:34:39.141Z,98253.06
2022-07-29T07:39:37.427Z,98267.00
2022-07-29T07:42:04.206Z,98257.09
2022-07-29T07:44:30.844Z,98262.03
2022-07-29T07:46:57.510Z,98267.22
2022-07-29T07:49:30.468Z,98262.69
2022-07-29T07:51:57.362Z,98259.88
2022-07-29T07:54:24.249Z,98255.84
2022-07-29T07:56:53.350Z,98256.19
2022-07-29T07:59:20.195Z,98248.56
2022-07-29T08:01:54.929Z,98258.38
2022-07-29T08:04:27.538Z,98249.72
2022-07-29T08:06:56.399Z,98249.72
2022-07-29T08:09:29.651Z,98252.59
2022-07-29T08:11:57.795Z,98247.59
2022-07-29T08:14:24.488Z,98247.94
2022-07-29T08:16:52.211Z,98252.47
2022-07-29T08:19:18.912Z,98245.66
2022-07-29T08:21:45.543Z,98258.13
2022-07-29T08:24:30.771Z,98251.13
2022-07-29T08:26:57.336Z,98248.94
2022-07-29T08:29:24.089Z,98245.22
2022-07-29T08:31:51.083Z,98253.63
2022-07-29T08:34:17.950Z,98251.41
2022-07-29T08:36:44.523Z,98246.94
2022-07-29T08:39:16.857Z,98248.81
2022-07-29T08:41:56.818Z,98246.97
2022-07-29T08:44:29.733Z,98253.94
2022-07-29T08:46:58.302Z,98244.34
2022-07-29T08:49:25.163Z,98251.97
2022-07-29T08:51:52.708Z,98245.91
2022-07-29T08:54:19.735Z,98261.63
2022-07-29T08:56:50.948Z,98251.66
2022-07-29T08:59:22.171Z,98249.13
2022-07-29T09:01:49.876Z,98243.97
2022-07-29T09:04:19.732Z,98238.28
2022-07-29T09:06:49.251Z,98250.06
2022-07-29T09:09:16.174Z,98241.72
2022-07-29T09:11:43.371Z,98242.91
2022-07-29T09:14:13.348Z,98245.75
2022-07-29T09:16:53.764Z,98237.84
2022-07-29T09:19:29.474Z,98233.47
2022-07-29T09:22:03.438Z,98232.06
2022-07-29T09:24:39.906Z,98230.84
2022-07-29T09:27:18.645Z,98231.09
2022-07-29T09:29:45.275Z,98223.38
2022-07-29T09:32:12.023Z,98228.69
2022-07-29T09:34:38.741Z,98223.13
2022-07-29T09:40:38.557Z,98209.84
2022-07-29T09:43:14.729Z,98216.44
2022-07-29T09:45:41.805Z,98220.69
2022-07-29T09:48:17.012Z,98213.47
2022-07-29T09:50:45.683Z,98213.88
2022-07-29T09:53:12.477Z,98210.56
2022-07-29T09:55:52.134Z,98204.56
2022-07-29T09:58:20.414Z,98202.91
2022-07-29T10:00:48.622Z,98200.00
2022-07-29T10:03:16.759Z,98197.88
2022-07-29T10:05:44.738Z,98206.59
2022-07-29T10:08:13.486Z,98198.69
2022-07-29T10:10:43.176Z,98204.31
2022-07-29T10:13:15.683Z,98200.50
2022-07-29T10:15:46.370Z,98186.22
2022-07-29T10:18:14.945Z,98192.34
2022-07-29T10:20:42.231Z,98194.25
2022-07-29T10:23:10.205Z,98191.31
2022-07-29T10:25:36.912Z,98199.38
2022-07-29T10:28:03.878Z,98195.03
2022-07-29T10:30:30.587Z,98202.25
2022-07-29T10:33:35.554Z,98197.41
2022-07-29T10:36:32.940Z,98200.22
2022-07-29T10:39:15.537Z,98194.72
2022-07-29T10:42:03.694Z,98189.88
2022-07-29T10:44:30.889Z,98174.25
2022-07-29T10:46:58.658Z,98184.78
2022-07-29T10:49:31.111Z,98177.75
2022-07-29T10:52:02.246Z,98169.34
2022-07-29T10:54:36.336Z,98177.81
2022-07-29T10:57:21.656Z,98170.06
2022-07-29T11:00:02.028Z,98181.59
2022-07-29T11:02:42.097Z,98173.97
2022-07-29T11:05:20.609Z,98170.25
2022-07-29T11:08:19.523Z,98179.19
2022-07-29T11:10:49.120Z,98171.69
2022-07-29T11:13:52.393Z,98175.91
2022-07-29T11:16:23.096Z,98174.78
2022-07-29T11:19:13.922Z,98158.97
2022-07-29T11:21:54.308Z,98166.00
2022-07-29T11:24:32.180Z,98181.44
2022-07-29T11:27:11.300Z,98170.56
2022-07-29T11:29:52.051Z,98161.47
2022-07-29T11:32:23.160Z,98162.63
2022-07-29T11:35:17.108Z,98153.69
2022-07-29T11:41:38.343Z,98158.53
2022-07-29T11:44:06.804Z,98156.53
2022-07-29T11:46:50.541Z,98156.53
2022-07-29T11:49:32.341Z,98147.78
2022-07-29T11:52:02.846Z,98143.09
2022-07-29T11:54:57.215Z,98138.72
2022-07-29T11:57:22.602Z,98145.84
2022-07-29T11:59:49.264Z,98145.22
2022-07-29T12:02:36.934Z,98144.41
2022-07-29T12:05:10.440Z,98141.31
2022-07-29T12:07:39.401Z,98137.56
2022-07-29T12:10:11.660Z,98136.56
2022-07-29T12:12:53.337Z,98145.00
2022-07-29T12:15:22.375Z,98138.38
2022-07-29T12:17:49.435Z,98137.22
2022-07-29T12:20:24.519Z,98133.03
2022-07-29T12:22:52.084Z,98130.94
2022-07-29T12:25:35.021Z,98129.31
2022-07-29T12:28:03.785Z,98131.91
2022-07-29T12:30:46.359Z,98128.16
2022-07-29T12:33:15.238Z,98121.34
2022-07-29T12:35:47.841Z,98114.69
2022-07-29T12:38:22.115Z,98121.19
2022-07-29T12:40:50.361Z,98111.16
2022-07-29T12:43:20.083Z,98122.34
2022-07-29T12:45:48.944Z,98118.25
2022-07-29T12:48:17.011Z,98120.50
2022-07-29T12:51:15.426Z,98124.25
2022-07-29T12:53:42.515Z,98122.28
2022-07-29T12:59:19.130Z,98115.03
2022-07-29T13:01:49.044Z,98111.59
2022-07-29T13:04:33.444Z,98108.22
2022-07-29T13:07:04.917Z,98108.06
2022-07-29T13:09:40.510Z,98107.09
2022-07-29T13:12:09.376Z,98105.13
2022-07-29T13:14:38.909Z,98107.56
2022-07-29T13:17:14.470Z,98098.63
2022-07-29T13:19:42.493Z,98103.03
2022-07-29T13:22:15.014Z,98095.38
2022-07-29T13:24:59.499Z,98095.22
2022-07-29T13:27:28.700Z,98095.19
2022-07-29T13:29:58.680Z,98093.06
2022-07-29T13:32:28.640Z,98099.38
2022-07-29T13:35:04.923Z,98093.53
2022-07-29T13:37:35.127Z,98083.47
2022-07-29T13:42:37.777Z,98083.78
2022-07-29T13:45:05.610Z,98086.72
2022-07-29T13:47:33.377Z,98078.31
2022-07-29T13:50:06.224Z,98080.91
2022-07-29T13:52:34.531Z,98077.19
2022-07-29T13:55:01.676Z,98072.94
2022-07-29T13:57:28.884Z,98074.28
2022-07-29T13:59:56.266Z,98077.19
2022-07-29T14:02:25.769Z,98076.06
2022-07-29T14:04:56.816Z,98076.53
2022-07-29T14:07:24.424Z,98070.06
2022-07-29T14:09:51.785Z,98073.44
2022-07-29T14:12:18.983Z,98066.47
2022-07-29T14:14:47.379Z,98066.03
2022-07-29T14:17:14.312Z,98060.44
2022-07-29T14:19:41.089Z,98057.56
2022-07-29T14:22:09.692Z,98058.88
2022-07-29T14:24:37.945Z,98056.75
2022-07-29T14:27:06.288Z,98052.84
2022-07-29T14:29:37.414Z,98040.38
2022-07-29T14:32:11.351Z,98045.84
2022-07-29T14:34:39.587Z,98034.81
2022-07-29T14:37:07.083Z,98033.19
2022-07-29T14:39:39.295Z,98035.47
2022-07-29T14:42:09.129Z,98032.22
2022-07-29T14:44:35.946Z,98023.78
2022-07-29T14:47:07.785Z,98031.22
2022-07-29T14:49:35.185Z,98032.69
2022-07-29T14:52:01.926Z,98023.78
2022-07-29T14:54:28.627Z,98026.03
2022-07-29T14:56:58.289Z,98008.50
2022-07-29T14:59:26.060Z,98017.94
2022-07-29T15:01:52.792Z,97999.59
2022-07-29T15:04:19.529Z,98007.53
2022-07-29T15:06:46.429Z,97990.53
2022-07-29T15:09:13.888Z,97991.41
2022-07-29T15:11:40.519Z,98003.06
2022-07-29T15:14:07.348Z,98004.84
2022-07-29T15:16:37.240Z,98001.09
2022-07-29T15:19:04.929Z,98005.00
2022-07-29T15:21:31.702Z,97992.94
2022-07-29T15:23:58.306Z,97993.75
2022-07-29T15:26:24.907Z,97999.28
2022-07-29T15:28:52.100Z,98000.47
2022-07-29T15:31:20.054Z,97988.09
2022-07-29T15:33:46.775Z,97995.22
2022-07-29T15:36:35.653Z,97984.50
2022-07-29T15:39:00.573Z,97986.84
2022-07-29T15:43:44.816Z,97977.06
2022-07-29T15:46:33.525Z,97970.41
2022-07-29T15:49:00.363Z,97973.66
2022-07-29T15:51:27.912Z,97973.31
2022-07-29T15:53:55.161Z,97985.31
2022-07-29T15:56:21.803Z,97988.06
2022-07-29T15:58:48.851Z,98000.84
2022-07-29T16:01:15.562Z,97992.78
2022-07-29T16:03:46.116Z,97990.72
2022-07-29T16:06:13.422Z,97998.28
2022-07-29T16:08:40.183Z,97992.22
2022-07-29T16:11:06.816Z,97993.16
2022-07-29T16:13:33.519Z,97996.03
2022-07-29T16:16:02.622Z,97996.84
2022-07-29T16:18:30.910Z,98002.97
2022-07-29T16:20:58.060Z,98002.81
2022-07-29T16:23:24.890Z,98006.69
2022-07-29T16:25:59.594Z,98009.44
2022-07-29T16:28:27.098Z,98002.63
2022-07-29T16:30:53.697Z,98002.94
2022-07-29T16:33:20.324Z,98001.00
2022-07-29T16:35:46.939Z,98005.69
2022-07-29T16:38:13.478Z,98009.38
2022-07-29T16:40:40.263Z,98000.53
2022-07-29T16:43:06.945Z,98005.81
2022-07-29T16:45:45.360Z,98013.88
2022-07-29T16:48:14.557Z,98006.28
2022-07-29T16:50:43.205Z,98006.63
2022-07-29T16:53:10.779Z,98008.19
2022-07-29T16:55:37.849Z,98012.38
2022-07-29T16:58:04.914Z,98019.59
2022-07-29T17:00:31.952Z,98009.97
2022-07-29T17:03:00.102Z,98004.06
2022-07-29T17:05:27.948Z,97999.94
2022-07-29T17:07:55.050Z,97988.38
2022-07-29T17:10:22.422Z,97988.22
2022-07-29T17:12:49.139Z,97981.84
2022-07-29T17:15:18.657Z,97981.44
2022-07-29T17:17:55.047Z,97970.59
2022-07-29T17:20:23.563Z,97972.81
2022-07-29T17:22:50.334Z,97969.16
2022-07-29T17:25:20.446Z,97968.84
2022-07-29T17:27:49.821Z,97967.13
2022-07-29T17:30:17.303Z,97977.88
2022-07-29T17:32:44.181Z,97982.56
2022-07-29T17:35:34.241Z,97979.09
2022-07-29T17:38:01.133Z,97969.25
2022-07-29T17:40:28.052Z,97977.56
2022-07-29T17:44:36.927Z,97994.09
2022-07-29T17:47:04.997Z,97990.13
2022-07-29T17:49:32.484Z,97990.00
2022-07-29T17:52:01.073Z,97991.41
2022-07-29T17:54:27.977Z,97992.25
2022-07-29T17:56:54.734Z,97995.66
2022-07-29T17:59:21.949Z,98000.53
2022-07-29T18:01:48.599Z,98002.84
2022-07-29T18:04:20.242Z,97996.66
2022-07-29T18:06:46.902Z,97993.91
2022-07-29T18:09:16.636Z,98002.94
2022-07-29T18:11:44.529Z,98012.34
2022-07-29T18:14:13.495Z,98011.94
2022-07-29T18:16:40.738Z,98013.44
2022-07-29T18:19:07.723Z,98012.34
2022-07-29T18:21:43.777Z,98018.16
2022-07-29T18:24:18.688Z,98017.44
2022-07-29T18:26:45.395Z,98007.88
2022-07-29T18:29:12.476Z,98012.09
2022-07-29T18:31:41.201Z,98012.22
2022-07-29T18:34:17.178Z,98018.22
2022-07-29T18:36:43.963Z,98013.41
2022-07-29T18:39:11.367Z,98027.63
2022-07-29T18:41:50.250Z,98028.53
2022-07-29T18:44:22.665Z,98033.91
2022-07-29T18:46:51.324Z,98034.19
2022-07-29T18:49:18.837Z,98040.28
2022-07-29T18:51:45.563Z,98033.47
2022-07-29T18:54:12.534Z,98029.63
2022-07-29T18:56:39.372Z,98043.59
2022-07-29T18:59:06.042Z,98039.53
2022-07-29T19:01:32.955Z,98037.38
2022-07-29T19:04:00.734Z,98032.50
2022-07-29T19:09:11.013Z,98030.34
2022-07-29T19:11:38.949Z,98041.66
2022-07-29T19:14:06.497Z,98033.50
2022-07-29T19:16:33.239Z,98037.72
2022-07-29T19:19:01.174Z,98036.31
2022-07-29T19:21:28.783Z,98035.56
2022-07-29T19:24:06.461Z,98023.56
2022-07-29T19:26:36.829Z,98046.00
2022-07-29T19:29:04.053Z,98034.34
2022-07-29T19:31:31.118Z,98031.44
2022-07-29T19:33:57.784Z,98031.97
2022-07-29T19:36:24.385Z,98029.81
2022-07-29T19:38:51.143Z,98029.00
2022-07-29T19:41:17.775Z,98024.94
2022-07-29T19:45:46.331Z,98012.59
2022-07-29T19:48:13.034Z,98012.03
2022-07-29T19:53:33.915Z,98011.09
2022-07-29T19:56:00.907Z,98008.13
2022-07-29T19:58:28.112Z,98003.75
2022-07-29T20:00:55.140Z,98015.28
2022-07-29T20:03:22.231Z,97998.28
2022-07-29T20:05:51.467Z,98004.38
2022-07-29T20:08:18.983Z,97991.28
2022-07-29T20:10:46.002Z,97997.81
2022-07-29T20:13:13.232Z,97993.75
2022-07-29T20:15:40.374Z,98012.00
2022-07-29T20:18:07.276Z,98010.09
2022-07-29T20:20:34.007Z,98021.03
2022-07-29T20:23:02.377Z,98027.06
2022-07-29T20:25:29.211Z,98035.84
2022-07-29T20:27:56.090Z,98038.31
2022-07-29T20:30:23.496Z,98038.59
2022-07-29T20:32:50.838Z,98040.84
2022-07-29T20:35:19.847Z,98033.75
2022-07-29T20:37:51.435Z,98034.75
2022-07-29T20:40:22.682Z,98026.69
2022-07-29T20:42:49.501Z,98030.44
2022-07-29T20:45:26.360Z,98019.41
2022-07-29T20:48:01.936Z,98018.69
2022-07-29T20:50:28.893Z,98006.19
2022-07-29T20:52:57.938Z,98000.50
2022-07-29T20:55:24.979Z,98005.44
2022-07-29T20:57:51.647Z,98000.56
2022-07-29T21:00:18.531Z,97998.66
2022-07-29T21:02:45.301Z,97989.66
2022-07-29T21:05:12.393Z,97992.66
2022-07-29T21:07:39.292Z,97986.09
2022-07-29T21:10:06.534Z,97993.19
2022-07-29T21:12:33.923Z,97988.53
2022-07-29T21:15:05.271Z,97993.16
2022-07-29T21:17:36.383Z,97990.44
2022-07-29T21:20:06.783Z,97990.13
2022-07-29T21:22:33.466Z,97997.50
2022-07-29T21:25:00.256Z,97990.41
2022-07-29T21:27:48.382Z,97992.03
2022-07-29T21:30:15.646Z,97989.84
2022-07-29T21:32:42.598Z,97993.66
2022-07-29T21:35:14.609Z,97984.38
2022-07-29T21:37:54.276Z,97987.94
2022-07-29T21:40:21.100Z,97987.41
2022-07-29T21:42:47.722Z,97977.88
2022-07-29T21:46:37.968Z,97977.66
2022-07-29T21:49:05.029Z,97977.38
2022-07-29T21:51:31.779Z,97983.91
2022-07-29T21:53:58.471Z,97988.00
2022-07-29T21:56:27.709Z,97984.19
2022-07-29T21:58:55.811Z,97987.44
2022-07-29T22:01:22.583Z,97991.78
2022-07-29T22:03:49.341Z,97987.97
2022-07-29T22:06:18.319Z,97981.13
2022-07-29T22:08:45.824Z,97989.00
2022-07-29T22:11:13.201Z,97982.47
2022-07-29T22:13:40.176Z,97969.63
2022-07-29T22:16:07.197Z,97974.53
2022-07-29T22:18:34.157Z,97981.63
2022-07-29T22:21:02.868Z,97976.97
2022-07-29T22:23:32.157Z,97978.88
2022-07-29T22:26:03.967Z,97979.16
2022-07-29T22:28:30.678Z,97970.16
2022-07-29T22:30:57.379Z,97974.50
2022-07-29T22:33:24.147Z,97973.13
2022-07-29T22:35:50.939Z,97976.16
2022-07-29T22:38:18.272Z,97973.16
2022-07-29T22:40:45.229Z,97977.78
2022-07-29T22:43:12.043Z,97972.56
2022-07-29T22:45:38.812Z,97952.94
2022-07-29T22:48:06.144Z,97958.13
2022-07-29T22:50:32.920Z,97952.69
2022-07-29T22:52:59.624Z,97954.28
2022-07-29T22:55:26.412Z,97954.84
2022-07-29T22:57:53.095Z,97939.63
2022-07-29T23:00:19.779Z,97942.91
2022-07-29T23:02:47.620Z,97937.47
2022-07-29T23:05:16.062Z,97935.56
2022-07-29T23:07:43.240Z,97938.03
2022-07-29T23:10:10.216Z,97935.25
2022-07-29T23:12:36.923Z,97921.66
2022-07-29T23:15:04.823Z,97925.47
2022-07-29T23:17:31.954Z,97920.28
2022-07-29T23:20:03.645Z,97921.66
2022-07-29T23:22:30.260Z,97907.50
2022-07-29T23:25:00.032Z,97915.13
2022-07-29T23:27:26.766Z,97914.53
2022-07-29T23:29:53.504Z,97920.00
2022-07-29T23:32:20.192Z,97921.41
2022-07-29T23:34:47.108Z,97908.03
2022-07-29T23:37:23.758Z,97900.94
2022-07-29T23:39:53.487Z,97894.94
2022-07-29T23:42:22.057Z,97891.66
2022-07-29T23:47:39.737Z,97887.91
2022-07-29T23:50:07.793Z,97878.59
2022-07-29T23:52:35.664Z,97880.25
2022-07-29T23:55:36.531Z,97878.38
2022-07-29T23:57:49.276Z,97881.13
